Capital City Airport
KLAN : now visible

Airfield :











YOU CAN JOIN US ON...

 
LOGIN :

Register | Disclaimer

   EN    FR    IT 

 









Legend :    VFR   Marginal VFR   IFR   Intensive IFR   Very Intensive IFR
Visi :
Ceiling :
>= 8 km
>= 3000ft
5 to 8 km
1000 to 3000 ft
1500m to 5 km
500 to 1000 ft
800 to 1500m
200 to 500 ft
< 800m
< 200 ft
Symbols :   Thunderstorms  Fog  Heavy snow  Heavy precipitations  Wind > 20 kt






- Airport Elevation : 861 ft
- IATA code : LAN


KLAN - Capital City

CURRENT METAR :
  • 231853Z 18011KT 7SM BKN065 BKN080 20/16 A3010 RMK AO2 RAE14 SLP194 P0003 T02000161

EXPIRED METARs :
  • 231813Z 17004KT 7SM -RA BKN060 OVC070 17/15 A3011 RMK AO2 P0003 T01720150
  • 231753Z 22007KT 3SM RA BR FEW034 BKN065 OVC085 17/15 A3013 RMK AO2 RAB1656 SLP203 P0008 60008 T01670150 10217 20144 53003
  • 231653Z 22013KT 10SM FEW035 BKN070 BKN085 21/12 A3011 RMK AO2 SLP198 T02060117

TAF KLAN
Valid from the 23 at 18:00 until the 24 at 18:00 UTC


231747Z 2318/2418 20011G19KT P6SM -SHRA BKN060
FM240400 18010KT P6SM BKN080
FM241100 20012G20KT P6SM SCT080
KZOB FIR / North America



MET'MAP, your aeronautical weather chart ! - Copyright ORBIFLY December 2007 - Disclaimer

ORBIFLY MET'MAP TEAM :

Programming & Development : Alexandra Zaïnal
Concept & original design : Baudouin d'Aumeries
Assistance for programming : Marc-Olivier Méhu
Technical & hardware support : Manuel Goepfert

Contact : metmap@orbifly.com




SOURCES & CREDITS :

   NOAA       Earth
Advisory